Time;durP1;ratioP1;P1;durP2;ratioP2;P2;SDS_P1;SDS_P2;PMS_P1;PMS_P2;Temp;Humidity;BMP_temperature;BMP_pressure;BME280_temperature;BME280_humidity;BME280_pressure;Samples;Min_cycle;Max_cycle;Signal;HPM_P1;HPM_P2
2022/02/20 00:00:43;;;;;;;4.18;3.78;;;4.20;99.90;;;;;;5038944;28;20055;-80
2022/02/20 00:03:09;;;;;;;7.18;3.92;;;3.60;99.90;;;;;;5051765;28;20373;-79
2022/02/20 00:05:36;;;;;;;4.32;3.85;;;3.50;99.90;;;;;;5060118;28;20036;-81
2022/02/20 00:08:02;;;;;;;5.85;3.55;;;3.40;99.90;;;;;;5051844;28;20490;-79
2022/02/20 00:10:28;;;;;;;3.92;3.58;;;3.50;99.90;;;;;;5067564;28;20044;-81
2022/02/20 00:12:54;;;;;;;6.00;3.58;;;3.40;99.90;;;;;;5053334;28;20044;-80
2022/02/20 00:15:20;;;;;;;3.92;3.42;;;3.40;99.90;;;;;;5051500;28;20074;-82
2022/02/20 00:17:50;;;;;;;6.05;4.25;;;3.40;99.90;;;;;;5059327;28;20444;-80
2022/02/20 00:20:15;;;;;;;5.07;3.95;;;3.40;99.90;;;;;;5051321;28;20562;-80
2022/02/20 00:22:41;;;;;;;6.13;3.83;;;3.40;99.90;;;;;;5032568;28;20044;-82
2022/02/20 00:25:08;;;;;;;5.15;4.13;;;3.40;99.90;;;;;;5034989;28;20037;-81
2022/02/20 00:27:34;;;;;;;5.80;4.22;;;3.30;99.90;;;;;;5049811;28;20101;-81
2022/02/20 00:29:59;;;;;;;4.63;4.13;;;3.30;99.90;;;;;;5050281;28;20044;-82
2022/02/20 00:32:25;;;;;;;4.80;3.42;;;3.20;99.90;;;;;;5047640;28;20040;-81
2022/02/20 00:34:51;;;;;;;4.15;3.22;;;3.20;99.90;;;;;;5049836;28;20519;-83
2022/02/20 00:37:17;;;;;;;4.35;2.75;;;3.20;99.90;;;;;;5038254;28;20128;-81
2022/02/20 00:39:43;;;;;;;3.45;2.70;;;3.10;99.90;;;;;;5057030;28;20066;-80
2022/02/20 00:42:09;;;;;;;3.20;2.40;;;3.20;99.90;;;;;;5034448;28;20041;-79
2022/02/20 00:44:34;;;;;;;3.70;2.60;;;3.10;99.90;;;;;;5030976;28;20040;-80
2022/02/20 00:47:00;;;;;;;5.40;2.50;;;3.10;99.90;;;;;;5047259;28;20493;-79
2022/02/20 00:49:26;;;;;;;4.13;2.38;;;3.10;99.90;;;;;;5049436;28;20059;-79
2022/02/20 00:51:52;;;;;;;8.77;2.53;;;3.00;99.90;;;;;;5066347;28;20064;-81
2022/02/20 00:54:18;;;;;;;4.80;2.60;;;3.00;99.90;;;;;;5032356;28;20728;-81
2022/02/20 00:56:43;;;;;;;6.80;2.50;;;3.10;99.90;;;;;;5057268;28;20051;-80
2022/02/20 00:59:09;;;;;;;4.30;2.42;;;3.20;99.90;;;;;;5081041;28;20048;-79
2022/02/20 01:01:35;;;;;;;3.13;2.42;;;3.20;99.90;;;;;;5056421;28;20040;-80
2022/02/20 01:04:01;;;;;;;5.35;2.47;;;3.20;99.90;;;;;;5034679;28;20537;-80
2022/02/20 01:06:27;;;;;;;2.72;2.53;;;3.20;99.90;;;;;;5035976;28;20036;-78
2022/02/20 01:08:53;;;;;;;3.50;2.65;;;3.20;99.90;;;;;;5033085;28;20040;-80
2022/02/20 01:11:19;;;;;;;3.03;2.72;;;3.30;99.90;;;;;;5033510;28;20051;-79
2022/02/20 01:13:46;;;;;;;4.13;2.70;;;3.90;99.90;;;;;;5036126;28;20312;-80
2022/02/20 01:16:12;;;;;;;6.25;2.47;;;3.40;99.90;;;;;;5033515;28;20551;-80
2022/02/20 01:18:39;;;;;;;6.43;2.95;;;3.40;99.90;;;;;;5050709;28;20036;-80
2022/02/20 01:21:04;;;;;;;2.95;2.50;;;3.30;99.90;;;;;;5055216;28;20113;-81
2022/02/20 01:23:31;;;;;;;3.40;2.60;;;3.50;99.90;;;;;;5058580;28;20072;-80
2022/02/20 01:25:56;;;;;;;5.78;3.00;;;3.40;99.90;;;;;;5049752;28;20037;-80
2022/02/20 01:28:22;;;;;;;4.10;3.13;;;3.40;99.90;;;;;;5045028;28;20037;-82
2022/02/20 01:30:48;;;;;;;4.45;3.40;;;3.30;99.90;;;;;;5044644;28;20071;-81
2022/02/20 01:33:14;;;;;;;3.83;2.90;;;3.50;99.90;;;;;;5050036;28;20041;-81
2022/02/20 01:35:40;;;;;;;4.75;2.88;;;3.40;99.90;;;;;;5030384;28;20059;-81
2022/02/20 01:38:06;;;;;;;5.45;3.22;;;3.40;99.90;;;;;;5054942;28;20040;-79
2022/02/20 01:40:31;;;;;;;6.20;2.85;;;3.50;99.90;;;;;;5036186;28;20428;-81
2022/02/20 01:42:58;;;;;;;3.83;2.60;;;3.50;99.90;;;;;;5042812;28;20044;-80
2022/02/20 01:45:23;;;;;;;2.30;1.92;;;3.50;99.90;;;;;;5057824;28;20032;-81
2022/02/20 01:47:49;;;;;;;3.05;2.67;;;3.40;99.90;;;;;;5052976;28;20082;-80
2022/02/20 01:50:16;;;;;;;4.38;2.50;;;3.50;99.90;;;;;;5067750;28;20086;-80
2022/02/20 01:52:46;;;;;;;4.55;2.45;;;3.50;99.90;;;;;;5034050;28;20035;-81
2022/02/20 01:55:14;;;;;;;2.53;1.92;;;3.50;99.90;;;;;;5045264;28;20048;-82
2022/02/20 01:57:41;;;;;;;5.32;2.50;;;3.40;99.90;;;;;;5050286;28;20123;-81
2022/02/20 02:00:13;;;;;;;2.85;2.10;;;3.40;99.90;;;;;;5050998;28;20049;-81
2022/02/20 02:02:40;;;;;;;3.92;1.95;;;3.60;99.90;;;;;;5056879;28;20090;-79
2022/02/20 02:05:06;;;;;;;2.42;2.15;;;3.80;99.90;;;;;;5050027;28;20048;-80
2022/02/20 02:07:32;;;;;;;2.83;2.30;;;3.60;99.90;;;;;;5058655;28;20048;-79
2022/02/20 02:09:58;;;;;;;3.10;2.50;;;3.50;99.90;;;;;;5070345;28;20350;-79
2022/02/20 02:12:24;;;;;;;3.53;2.17;;;3.60;99.90;;;;;;5032889;28;20041;-80
2022/02/20 02:15:12;;;;;;;2.88;2.30;;;3.60;99.90;;;;;;5032173;28;20063;-80
2022/02/20 02:17:39;;;;;;;3.08;2.40;;;3.40;99.90;;;;;;5052027;28;20067;-81
2022/02/20 02:20:07;;;;;;;3.10;2.35;;;3.40;99.90;;;;;;5026804;28;20071;-80
2022/02/20 02:22:33;;;;;;;6.55;2.40;;;3.40;99.90;;;;;;5036782;28;20446;-78
2022/02/20 02:24:59;;;;;;;2.40;2.20;;;3.20;99.90;;;;;;5054456;28;20033;-77
2022/02/20 02:27:26;;;;;;;3.08;2.67;;;3.20;99.90;;;;;;5054560;28;20068;-77
2022/02/20 02:29:53;;;;;;;4.82;2.90;;;3.20;99.90;;;;;;5035488;28;20538;-80
2022/02/20 02:32:20;;;;;;;4.40;2.80;;;3.10;99.90;;;;;;5038206;28;20048;-77
2022/02/20 02:34:46;;;;;;;3.05;2.78;;;3.10;99.90;;;;;;5054879;28;20395;-81
2022/02/20 02:37:12;;;;;;;4.65;3.35;;;3.00;99.90;;;;;;5038547;28;20475;-81
2022/02/20 02:39:39;;;;;;;5.68;3.50;;;2.90;99.90;;;;;;5057590;28;20041;-81
2022/02/20 02:42:07;;;;;;;4.00;3.58;;;2.90;99.90;;;;;;5052841;28;20128;-81
2022/02/20 02:44:33;;;;;;;3.22;2.90;;;2.80;99.90;;;;;;5055108;28;20085;-81
2022/02/20 02:46:58;;;;;;;3.13;2.70;;;2.80;99.90;;;;;;5056770;28;20446;-79
2022/02/20 02:49:24;;;;;;;3.00;2.70;;;2.80;99.90;;;;;;5057545;28;20131;-81
2022/02/20 02:51:50;;;;;;;4.05;3.30;;;2.80;99.90;;;;;;5039413;28;20056;-78
2022/02/20 02:54:20;;;;;;;3.00;2.70;;;2.80;99.90;;;;;;5041354;28;20048;-81
2022/02/20 02:56:47;;;;;;;5.45;2.95;;;2.70;99.90;;;;;;5050179;28;20068;-81
2022/02/20 02:59:13;;;;;;;3.85;3.42;;;2.70;99.90;;;;;;5054581;28;20043;-81
2022/02/20 03:01:40;;;;;;;3.40;3.10;;;2.60;99.90;;;;;;5056363;28;20471;-80
2022/02/20 03:04:06;;;;;;;4.70;3.35;;;2.60;99.90;;;;;;5057454;28;20143;-80
2022/02/20 03:06:32;;;;;;;3.97;3.30;;;2.60;99.90;;;;;;5072030;28;20199;-79
2022/02/20 03:08:58;;;;;;;3.30;3.00;;;2.60;99.90;;;;;;5038525;28;20036;-79
2022/02/20 03:11:23;;;;;;;5.75;3.40;;;2.60;99.90;;;;;;5037737;28;20057;-79
2022/02/20 03:13:49;;;;;;;3.92;3.40;;;2.60;99.90;;;;;;5076109;28;20384;-78
2022/02/20 03:16:15;;;;;;;4.00;3.40;;;2.60;99.90;;;;;;5056042;28;20032;-79
2022/02/20 03:18:41;;;;;;;5.35;4.10;;;2.50;99.90;;;;;;5058225;28;20044;-78
2022/02/20 03:21:07;;;;;;;3.72;3.15;;;2.50;99.90;;;;;;5031293;28;20052;-77
2022/02/20 03:23:34;;;;;;;5.50;3.42;;;2.50;99.90;;;;;;5043579;28;20052;-80
2022/02/20 03:26:00;;;;;;;4.45;3.55;;;2.50;99.90;;;;;;5043751;28;20041;-82
2022/02/20 03:28:26;;;;;;;3.97;3.38;;;2.50;99.90;;;;;;5024761;28;20047;-80
2022/02/20 03:30:52;;;;;;;3.97;3.35;;;2.50;99.90;;;;;;5041246;28;20163;-79
2022/02/20 03:33:19;;;;;;;4.75;3.30;;;2.60;99.90;;;;;;5041216;28;20033;-82
2022/02/20 03:35:45;;;;;;;3.65;3.22;;;2.50;99.90;;;;;;5029542;28;20044;-80
2022/02/20 03:38:11;;;;;;;6.63;3.35;;;2.50;99.90;;;;;;5020658;28;20102;-80
2022/02/20 03:40:37;;;;;;;3.50;3.10;;;2.60;99.90;;;;;;5045296;28;20036;-78
2022/02/20 03:43:03;;;;;;;3.88;3.53;;;2.70;99.90;;;;;;5044498;28;20100;-80
2022/02/20 03:45:30;;;;;;;6.78;3.65;;;2.70;99.90;;;;;;5027323;28;20128;-80
2022/02/20 03:47:56;;;;;;;7.72;3.50;;;2.90;99.90;;;;;;5038931;28;20146;-80
2022/02/20 03:50:22;;;;;;;4.75;3.55;;;2.80;99.90;;;;;;5035541;28;20037;-80
2022/02/20 03:52:48;;;;;;;3.97;3.28;;;2.50;99.90;;;;;;5016830;28;20124;-79
2022/02/20 03:55:15;;;;;;;6.68;3.55;;;2.90;99.90;;;;;;5038553;28;20083;-82
2022/02/20 03:57:41;;;;;;;4.55;3.25;;;2.80;99.90;;;;;;5038234;28;20483;-81
2022/02/20 04:00:10;;;;;;;5.82;3.20;;;2.90;99.90;;;;;;5022435;28;20076;-78
2022/02/20 04:02:39;;;;;;;8.98;3.20;;;2.90;99.90;;;;;;5036142;28;20037;-80
2022/02/20 04:05:07;;;;;;;4.07;3.53;;;2.80;99.90;;;;;;5037044;28;20608;-79
2022/02/20 04:07:34;;;;;;;4.07;3.30;;;2.80;99.90;;;;;;5038826;28;20033;-78
2022/02/20 04:10:00;;;;;;;5.82;3.42;;;2.80;99.90;;;;;;5045432;28;20178;-79
2022/02/20 04:12:26;;;;;;;5.72;3.22;;;2.80;99.90;;;;;;5046619;28;20037;-81
2022/02/20 04:14:52;;;;;;;6.07;3.40;;;2.80;99.90;;;;;;5046852;28;20037;-81
2022/02/20 04:17:20;;;;;;;5.35;3.20;;;2.80;99.90;;;;;;5021423;28;20048;-81
2022/02/20 04:19:47;;;;;;;6.22;3.80;;;2.70;99.90;;;;;;5049254;28;20041;-80
2022/02/20 04:22:14;;;;;;;7.85;3.80;;;3.20;99.90;;;;;;5041442;28;20385;-81
2022/02/20 04:24:40;;;;;;;5.13;3.58;;;2.90;99.90;;;;;;5055329;28;20048;-78
2022/02/20 04:27:06;;;;;;;6.68;3.60;;;2.80;99.90;;;;;;5052982;28;20086;-80
2022/02/20 04:29:31;;;;;;;5.30;3.30;;;2.80;99.90;;;;;;5064801;28;20036;-81
2022/02/20 04:31:57;;;;;;;6.43;3.15;;;2.80;99.90;;;;;;5060011;28;20084;-79
2022/02/20 04:34:23;;;;;;;7.78;3.22;;;2.80;99.90;;;;;;5056435;28;20047;-78
2022/02/20 04:36:49;;;;;;;6.47;3.40;;;2.80;99.90;;;;;;5054745;28;20044;-81
2022/02/20 04:39:14;;;;;;;6.80;3.35;;;2.90;99.90;;;;;;5057763;28;20570;-80
2022/02/20 04:41:40;;;;;;;7.82;3.35;;;2.90;99.90;;;;;;5077046;28;20040;-81
2022/02/20 04:44:05;;;;;;;3.92;3.00;;;2.90;99.90;;;;;;5039176;28;20110;-79
2022/02/20 04:46:34;;;;;;;4.50;2.83;;;2.90;99.90;;;;;;5072115;28;20040;-79
2022/02/20 04:49:00;;;;;;;5.40;3.13;;;2.90;99.90;;;;;;5052328;28;20522;-81
2022/02/20 04:51:26;;;;;;;5.88;2.88;;;2.90;99.90;;;;;;5053332;28;20127;-79
2022/02/20 04:53:52;;;;;;;5.63;3.03;;;3.00;99.90;;;;;;5037840;28;20128;-82
2022/02/20 04:56:17;;;;;;;5.00;3.03;;;2.90;99.90;;;;;;5036021;28;20052;-81
2022/02/20 04:58:43;;;;;;;6.90;2.80;;;2.90;99.90;;;;;;5043430;28;20383;-79
2022/02/20 05:01:08;;;;;;;3.90;2.55;;;3.70;99.90;;;;;;5053460;28;20051;-82
2022/02/20 05:03:34;;;;;;;6.60;2.92;;;3.00;99.90;;;;;;5055513;28;20458;-79
2022/02/20 05:06:00;;;;;;;3.60;2.92;;;3.10;99.90;;;;;;5061978;28;20040;-78
2022/02/20 05:08:26;;;;;;;5.47;3.13;;;3.00;99.90;;;;;;5044075;28;20050;-80
2022/02/20 05:10:51;;;;;;;7.38;2.75;;;3.00;99.90;;;;;;5064702;28;20028;-79
2022/02/20 05:13:17;;;;;;;4.97;2.85;;;3.10;99.90;;;;;;5057030;28;20043;-81
2022/02/20 05:15:43;;;;;;;10.25;2.80;;;3.10;99.90;;;;;;5066310;28;20127;-80
2022/02/20 05:18:08;;;;;;;7.82;3.00;;;3.10;99.90;;;;;;5056438;28;20040;-80
2022/02/20 05:20:35;;;;;;;7.38;2.70;;;3.20;99.90;;;;;;5059988;28;20486;-79
2022/02/20 05:23:01;;;;;;;7.60;2.60;;;3.20;99.90;;;;;;5072645;28;20041;-81
2022/02/20 05:25:27;;;;;;;7.85;3.00;;;3.30;99.90;;;;;;5044345;28;20078;-81
2022/02/20 05:27:52;;;;;;;5.93;2.60;;;3.20;99.90;;;;;;5047238;28;20345;-81
2022/02/20 05:30:20;;;;;;;4.70;3.10;;;3.90;99.90;;;;;;5044710;28;20048;-81
2022/02/20 05:32:46;;;;;;;7.05;2.65;;;3.40;99.90;;;;;;5059318;28;20244;-81
2022/02/20 05:35:12;;;;;;;5.88;2.78;;;3.30;99.90;;;;;;5043698;28;20052;-81
2022/02/20 05:37:42;;;;;;;10.25;3.00;;;3.40;99.90;;;;;;5058796;28;20395;-81
2022/02/20 05:40:10;;;;;;;7.15;2.90;;;3.50;99.90;;;;;;5043756;28;20033;-80
2022/02/20 05:42:36;;;;;;;10.23;2.90;;;3.50;99.90;;;;;;5054866;28;20175;-79
2022/02/20 05:45:02;;;;;;;6.88;2.65;;;3.50;99.90;;;;;;5041632;28;20182;-79
2022/02/20 05:47:28;;;;;;;7.93;2.63;;;3.40;99.90;;;;;;5046272;28;20537;-79
2022/02/20 05:49:53;;;;;;;7.10;2.58;;;3.50;99.90;;;;;;5055262;28;20066;-80
2022/02/20 05:52:21;;;;;;;4.93;2.35;;;3.50;99.90;;;;;;5051041;28;20050;-81
2022/02/20 05:54:46;;;;;;;6.72;2.92;;;3.40;99.90;;;;;;5055560;28;20048;-81
2022/02/20 05:57:12;;;;;;;7.93;2.70;;;3.60;99.90;;;;;;5064325;28;20041;-81
2022/02/20 05:59:37;;;;;;;7.75;2.70;;;3.50;99.90;;;;;;5059862;28;20427;-80
2022/02/20 06:02:03;;;;;;;5.72;2.55;;;3.50;99.90;;;;;;5057223;28;20063;-82
2022/02/20 06:04:29;;;;;;;5.22;2.75;;;3.60;99.90;;;;;;5064734;28;20458;-81
2022/02/20 06:06:55;;;;;;;12.38;3.33;;;3.60;99.90;;;;;;5051589;28;20036;-81
2022/02/20 06:09:20;;;;;;;6.95;2.70;;;3.80;99.90;;;;;;5037865;28;20144;-80
2022/02/20 06:11:46;;;;;;;7.50;2.70;;;3.50;99.90;;;;;;5055873;28;20048;-80
2022/02/20 06:14:11;;;;;;;4.03;2.20;;;3.60;99.90;;;;;;5042684;28;20032;-81
2022/02/20 06:16:37;;;;;;;7.53;2.65;;;3.90;99.90;;;;;;5047826;28;20386;-80
2022/02/20 06:19:03;;;;;;;5.97;2.63;;;3.60;99.90;;;;;;5045649;28;20032;-80
2022/02/20 06:21:28;;;;;;;9.20;2.67;;;3.60;99.90;;;;;;5054927;28;20065;-80
2022/02/20 06:23:54;;;;;;;5.60;2.50;;;3.70;99.90;;;;;;5039708;28;20048;-80
2022/02/20 06:26:20;;;;;;;7.55;2.50;;;3.70;99.90;;;;;;5021217;28;20942;-80
2022/02/20 06:28:45;;;;;;;4.85;2.17;;;3.60;99.90;;;;;;5019811;28;20404;-80
2022/02/20 06:31:11;;;;;;;5.68;2.47;;;3.60;99.90;;;;;;5023579;28;20025;-81
2022/02/20 06:33:37;;;;;;;4.85;2.15;;;3.70;99.90;;;;;;5020127;28;20091;-81
2022/02/20 06:36:03;;;;;;;4.00;1.95;;;3.70;99.90;;;;;;5040087;28;20487;-79
2022/02/20 06:38:29;;;;;;;3.78;2.45;;;3.70;99.90;;;;;;5042202;28;20036;-79
2022/02/20 06:40:54;;;;;;;4.57;2.75;;;3.60;99.90;;;;;;5020679;28;20067;-81
2022/02/20 06:43:20;;;;;;;6.95;2.63;;;3.70;99.90;;;;;;5032488;28;20148;-81
2022/02/20 06:45:45;;;;;;;6.38;2.80;;;3.70;99.90;;;;;;5031333;28;20033;-80
2022/02/20 06:48:11;;;;;;;10.95;3.58;;;3.60;99.90;;;;;;5031803;28;20087;-79
2022/02/20 06:50:37;;;;;;;5.97;2.92;;;3.70;99.90;;;;;;5016042;28;20471;-77
2022/02/20 06:53:05;;;;;;;5.60;3.17;;;3.60;99.90;;;;;;5017298;28;20032;-78
2022/02/20 06:55:32;;;;;;;8.07;3.83;;;3.60;99.90;;;;;;5040709;28;20399;-78
2022/02/20 06:57:58;;;;;;;7.82;3.58;;;3.70;99.90;;;;;;5039615;28;20032;-79
2022/02/20 07:00:24;;;;;;;7.13;2.97;;;3.60;99.90;;;;;;5021919;28;20060;-79
2022/02/20 07:02:50;;;;;;;5.28;3.10;;;3.60;99.90;;;;;;5028158;28;20052;-80
2022/02/20 07:05:16;;;;;;;9.52;4.10;;;3.70;99.90;;;;;;5034979;28;20480;-81
2022/02/20 07:07:42;;;;;;;7.40;3.38;;;3.70;99.90;;;;;;5037451;28;20120;-80
2022/02/20 07:10:09;;;;;;;8.18;4.18;;;3.60;99.90;;;;;;5023358;28;20053;-80
2022/02/20 07:12:36;;;;;;;5.90;3.45;;;3.60;99.90;;;;;;5047931;28;20038;-80
2022/02/20 07:15:03;;;;;;;9.77;3.60;;;3.60;99.90;;;;;;5045733;28;20032;-79
2022/02/20 07:17:29;;;;;;;6.47;3.35;;;3.60;99.90;;;;;;5035195;28;20168;-79
2022/02/20 07:19:55;;;;;;;10.27;3.60;;;3.60;99.90;;;;;;5033578;28;20266;-78
2022/02/20 07:22:21;;;;;;;8.00;2.95;;;3.70;99.90;;;;;;5045211;28;20289;-79
2022/02/20 07:24:47;;;;;;;7.50;3.30;;;3.90;99.90;;;;;;5037239;28;20053;-77
2022/02/20 07:27:12;;;;;;;10.15;3.47;;;3.60;99.90;;;;;;5042715;28;20496;-76
2022/02/20 07:29:38;;;;;;;12.48;4.30;;;3.70;99.90;;;;;;5037984;28;20029;-80
2022/02/20 07:32:04;;;;;;;9.80;4.07;;;3.70;99.90;;;;;;5049254;28;20095;-79
2022/02/20 07:34:30;;;;;;;9.25;3.92;;;3.70;99.90;;;;;;5029131;28;20036;-80
2022/02/20 07:36:55;;;;;;;9.95;3.60;;;3.70;99.90;;;;;;5036903;28;20037;-79
2022/02/20 07:39:21;;;;;;;9.30;4.38;;;3.90;99.90;;;;;;5021928;28;20056;-81
2022/02/20 07:41:47;;;;;;;4.47;3.38;;;3.90;99.90;;;;;;5025879;28;20045;-78
2022/02/20 07:44:13;;;;;;;8.02;4.25;;;3.90;99.90;;;;;;5041962;28;20044;-78
2022/02/20 07:46:38;;;;;;;10.75;4.65;;;4.00;99.90;;;;;;5036515;28;20037;-81
2022/02/20 07:49:04;;;;;;;9.45;4.30;;;3.90;99.90;;;;;;5045112;28;20399;-80
2022/02/20 07:51:30;;;;;;;14.63;4.63;;;4.30;99.90;;;;;;5032517;28;20033;-80
2022/02/20 07:53:56;;;;;;;6.50;3.88;;;4.00;99.90;;;;;;5044660;28;20051;-79
2022/02/20 07:56:22;;;;;;;8.90;4.35;;;4.10;99.90;;;;;;5026639;28;20045;-80
2022/02/20 07:58:48;;;;;;;8.35;4.13;;;4.70;99.90;;;;;;5038847;28;20103;-80
2022/02/20 08:01:13;;;;;;;7.20;4.80;;;4.30;99.90;;;;;;5045002;28;20746;-79
2022/02/20 08:03:39;;;;;;;10.88;4.82;;;4.30;99.90;;;;;;5035484;28;20141;-79
2022/02/20 08:06:06;;;;;;;7.38;4.50;;;4.40;99.90;;;;;;5035510;28;20467;-80
2022/02/20 08:08:33;;;;;;;6.78;4.47;;;4.40;99.90;;;;;;5044404;28;20033;-81
2022/02/20 08:11:00;;;;;;;8.13;4.68;;;4.50;99.90;;;;;;5013762;28;20147;-80
2022/02/20 08:13:26;;;;;;;7.75;4.57;;;4.60;99.90;;;;;;5035500;28;20079;-78
2022/02/20 08:15:52;;;;;;;5.70;4.30;;;4.70;99.90;;;;;;5017187;28;20065;-81
2022/02/20 08:18:18;;;;;;;6.70;4.45;;;4.70;99.90;;;;;;5033849;28;20075;-82
2022/02/20 08:20:44;;;;;;;7.53;4.38;;;5.60;99.90;;;;;;5035156;28;20469;-78
2022/02/20 08:23:11;;;;;;;7.43;4.28;;;5.00;99.90;;;;;;5068999;28;20043;-78
2022/02/20 08:25:39;;;;;;;8.65;4.55;;;5.00;99.90;;;;;;5053233;28;20036;-79
2022/02/20 08:28:04;;;;;;;10.02;4.65;;;5.10;99.90;;;;;;5044282;28;20050;-79
2022/02/20 08:30:30;;;;;;;11.40;5.00;;;5.00;99.90;;;;;;5087731;28;20040;-80
2022/02/20 08:32:56;;;;;;;8.27;5.38;;;5.20;99.90;;;;;;5063731;28;20032;-80
2022/02/20 08:35:21;;;;;;;8.00;4.95;;;5.40;99.90;;;;;;5053703;28;20381;-78
2022/02/20 08:37:47;;;;;;;8.85;4.82;;;5.30;99.90;;;;;;5056681;28;20095;-79
2022/02/20 08:40:16;;;;;;;7.07;5.28;;;5.40;99.90;;;;;;5053465;28;20041;-79
2022/02/20 08:42:42;;;;;;;7.40;5.63;;;5.40;99.90;;;;;;5050073;28;20032;-79
2022/02/20 08:45:08;;;;;;;7.43;5.57;;;5.50;99.90;;;;;;5055151;28;20036;-79
2022/02/20 08:47:34;;;;;;;7.60;5.40;;;5.50;99.90;;;;;;5055347;28;20037;-80
2022/02/20 08:50:56;;;;;;;13.25;6.35;;;6.30;99.90;;;;;;5064819;28;20028;-79
2022/02/20 08:53:22;;;;;;;8.60;5.70;;;5.90;99.90;;;;;;5081325;28;20050;-78
2022/02/20 08:55:48;;;;;;;14.52;6.10;;;5.90;99.90;;;;;;5057745;28;20028;-76
2022/02/20 08:58:13;;;;;;;11.65;6.30;;;6.10;99.90;;;;;;5062406;28;20044;-78
2022/02/20 09:00:39;;;;;;;10.23;7.05;;;6.10;99.90;;;;;;5052646;28;20517;-79
2022/02/20 09:03:05;;;;;;;9.50;6.60;;;6.10;99.90;;;;;;5053342;28;20464;-79
2022/02/20 09:05:35;;;;;;;10.57;6.88;;;6.10;99.90;;;;;;5039825;28;20045;-81
2022/02/20 09:08:01;;;;;;;8.30;6.28;;;6.70;99.90;;;;;;5030801;28;20451;-80
2022/02/20 09:10:27;;;;;;;12.63;7.10;;;6.30;99.90;;;;;;5077884;28;20053;-80
2022/02/20 09:12:53;;;;;;;11.25;7.20;;;7.10;99.90;;;;;;5074481;28;20047;-79
2022/02/20 09:15:20;;;;;;;15.85;7.10;;;7.00;99.90;;;;;;5069916;28;20128;-79
2022/02/20 09:21:30;;;;;;;18.80;7.00;;;6.70;99.90;;;;;;4936411;28;20051;-83
2022/02/20 09:23:57;;;;;;;12.18;6.35;;;7.50;99.90;;;;;;4927824;28;20091;-83
2022/02/20 09:26:50;;;;;;;9.98;5.10;;;7.70;99.90;;;;;;4927755;28;20070;-82
2022/02/20 09:29:16;;;;;;;14.55;5.15;;;7.20;99.90;;;;;;4914250;28;20044;-80
2022/02/20 09:31:43;;;;;;;14.45;4.82;;;7.70;99.90;;;;;;4927971;28;20479;-81
2022/02/20 09:34:08;;;;;;;12.80;3.78;;;8.20;99.90;;;;;;4935586;28;20118;-80
2022/02/20 09:37:12;;;;;;;19.27;3.70;;;7.70;99.90;;;;;;4942272;28;20531;-83
2022/02/20 09:39:48;;;;;;;13.10;3.55;;;7.80;99.90;;;;;;4854882;29;20053;-83
2022/02/20 09:42:15;;;;;;;23.73;3.88;;;8.30;99.90;;;;;;4850624;29;20056;-80
2022/02/20 09:44:44;;;;;;;22.98;3.45;;;8.00;99.90;;;;;;4865268;29;20049;-82
2022/02/20 09:47:11;;;;;;;31.80;4.45;;;8.20;99.90;;;;;;4853051;29;20044;-81
2022/02/20 09:49:45;;;;;;;28.63;4.03;;;8.50;99.90;;;;;;4868738;29;20051;-83
2022/02/20 09:52:11;;;;;;;28.20;3.85;;;9.00;99.90;;;;;;4850434;29;20489;-78
2022/02/20 09:54:37;;;;;;;26.85;4.47;;;8.40;99.90;;;;;;4853363;29;20116;-83
2022/02/20 09:57:05;;;;;;;32.83;4.50;;;8.40;99.90;;;;;;4881615;28;20107;-83
2022/02/20 09:59:31;;;;;;;29.13;4.22;;;8.40;99.90;;;;;;4944373;28;20107;-78
2022/02/20 10:09:29;;;;;;;40.50;5.10;;;8.80;99.90;;;;;;4918857;28;20098;-83
2022/02/20 10:11:56;;;;;;;31.23;4.18;;;8.60;99.90;;;;;;4952779;28;20050;-85
2022/02/20 10:14:22;;;;;;;30.45;4.82;;;8.60;99.90;;;;;;4962561;28;20055;-81
2022/02/20 10:16:48;;;;;;;35.10;4.57;;;8.70;99.90;;;;;;4965190;28;20061;-83
2022/02/20 10:19:14;;;;;;;36.17;5.10;;;8.60;99.90;;;;;;4932353;28;20039;-81
2022/02/20 10:21:39;;;;;;;46.13;5.78;;;9.40;99.90;;;;;;4953074;28;20148;-82
2022/02/20 10:24:10;;;;;;;35.83;5.03;;;8.70;99.90;;;;;;4980782;28;20054;-82
2022/02/20 10:26:46;;;;;;;39.30;5.30;;;8.60;99.90;;;;;;4979403;28;20034;-79
2022/02/20 10:29:18;;;;;;;34.33;4.43;;;8.80;99.90;;;;;;4981444;28;20093;-84
2022/02/20 10:31:53;;;;;;;45.25;5.90;;;9.50;99.90;;;;;;4978028;28;20465;-82
2022/02/20 10:34:20;;;;;;;35.83;4.97;;;8.90;99.90;;;;;;4946775;28;20054;-82
2022/02/20 10:36:48;;;;;;;40.72;5.60;;;9.00;99.90;;;;;;4975295;28;20188;-81
2022/02/20 10:39:19;;;;;;;38.30;5.65;;;8.90;99.90;;;;;;4969604;28;20137;-84
2022/02/20 10:41:46;;;;;;;41.58;4.85;;;8.90;99.90;;;;;;5033666;28;20148;-82
2022/02/20 10:44:12;;;;;;;42.00;6.20;;;8.90;99.90;;;;;;5075645;28;20064;-82
2022/02/20 10:46:41;;;;;;;44.10;6.15;;;9.30;99.90;;;;;;5038697;28;20074;-83
2022/02/20 10:49:07;;;;;;;45.38;5.85;;;9.40;99.90;;;;;;5043921;28;20472;-83
2022/02/20 10:51:40;;;;;;;49.45;6.43;;;9.00;99.90;;;;;;5052084;28;20098;-82
2022/02/20 10:54:06;;;;;;;40.70;5.22;;;8.90;99.90;;;;;;5050662;28;20082;-81
2022/02/20 10:57:10;;;;;;;45.83;6.35;;;8.90;99.90;;;;;;5070900;28;20037;-82
2022/02/20 10:59:48;;;;;;;34.63;4.93;;;9.80;99.90;;;;;;5052692;28;20060;-79
2022/02/20 11:02:16;;;;;;;52.70;6.60;;;9.00;99.90;;;;;;5060074;28;20157;-79
2022/02/20 11:04:43;;;;;;;45.40;6.82;;;8.90;99.90;;;;;;5026927;28;20032;-78
2022/02/20 11:07:11;;;;;;;37.28;6.30;;;8.90;99.90;;;;;;5063250;28;20043;-81
2022/02/20 11:09:37;;;;;;;49.15;6.35;;;9.50;99.90;;;;;;5058381;28;20183;-79
2022/02/20 11:12:03;;;;;;;43.28;5.75;;;8.90;99.90;;;;;;5057297;28;20051;-81
2022/02/20 11:14:29;;;;;;;52.78;7.28;;;9.10;99.90;;;;;;5037445;28;20045;-81
2022/02/20 11:16:55;;;;;;;51.90;6.90;;;9.00;99.90;;;;;;5073121;28;20086;-79
2022/02/20 11:19:27;;;;;;;41.55;6.07;;;9.20;99.90;;;;;;5027620;28;20047;-80
2022/02/20 11:21:59;;;;;;;47.88;7.18;;;9.00;99.90;;;;;;5029206;28;20121;-80
2022/02/20 11:24:30;;;;;;;45.75;6.97;;;9.10;99.90;;;;;;5056288;28;20071;-83
2022/02/20 11:27:02;;;;;;;43.90;7.05;;;9.00;99.90;;;;;;5059049;28;20048;-83
2022/02/20 11:29:28;;;;;;;60.85;8.13;;;9.10;99.90;;;;;;5044142;28;20088;-84
2022/02/20 11:31:54;;;;;;;52.63;7.15;;;9.00;99.90;;;;;;5045758;28;20075;-82
2022/02/20 11:34:21;;;;;;;43.10;6.93;;;9.10;99.90;;;;;;5060125;28;20121;-81
2022/02/20 11:36:56;;;;;;;47.50;7.22;;;9.10;99.90;;;;;;5059759;28;20144;-83
2022/02/20 11:39:22;;;;;;;;;;;9.10;99.90;;;;;;5077438;28;20055;-80
2022/02/20 11:42:19;;;;;;;42.78;6.93;;;9.10;99.90;;;;;;5072782;28;19928;-78
2022/02/20 11:45:22;;;;;;;47.05;6.82;;;9.30;99.90;;;;;;4952412;28;20379;-82
2022/02/20 11:48:13;;;;;;;47.65;7.10;;;9.30;99.90;;;;;;4970042;28;20122;-80
2022/02/20 11:50:49;;;;;;;45.35;6.82;;;9.20;99.90;;;;;;4954209;28;20130;-82
2022/02/20 11:53:29;;;;;;;52.58;6.60;;;9.30;99.90;;;;;;4952386;28;20146;-82
2022/02/20 11:56:05;;;;;;;46.60;7.50;;;9.30;99.90;;;;;;4935642;28;20050;-81
2022/02/20 11:58:31;;;;;;;55.90;8.80;;;9.20;99.90;;;;;;4948637;28;20192;-79
2022/02/20 12:00:56;;;;;;;65.53;8.32;;;9.30;99.90;;;;;;4947701;28;20050;-81
2022/02/20 12:03:22;;;;;;;55.50;8.18;;;9.20;99.90;;;;;;4952289;28;20057;-82
2022/02/20 12:06:24;;;;;;;65.25;8.43;;;9.20;99.90;;;;;;4967846;28;20163;-80
2022/02/20 12:08:58;;;;;;;49.00;6.82;;;9.10;99.90;;;;;;4954410;28;20042;-80
2022/02/20 12:11:25;;;;;;;51.65;8.57;;;9.10;99.90;;;;;;4952238;28;20114;-80
2022/02/20 12:13:56;;;;;;;53.25;9.43;;;9.80;99.90;;;;;;4953475;28;20113;-80
2022/02/20 12:16:26;;;;;;;55.33;7.95;;;9.20;99.90;;;;;;4944004;28;21390;-80
2022/02/20 12:19:07;;;;;;;52.08;6.88;;;9.00;99.90;;;;;;4944405;28;20043;-80
2022/02/20 12:21:52;;;;;;;68.82;8.98;;;9.10;99.90;;;;;;5045893;28;20059;-79
2022/02/20 12:24:43;;;;;;;55.38;7.95;;;9.10;99.90;;;;;;5019582;28;20053;-80
2022/02/20 12:27:18;;;;;;;40.72;7.07;;;9.10;99.90;;;;;;5014905;28;20049;-80
2022/02/20 12:29:48;;;;;;;59.92;7.63;;;9.00;99.90;;;;;;5032323;28;20116;-81
2022/02/20 12:32:30;;;;;;;54.88;7.47;;;9.10;99.90;;;;;;5018183;28;20048;-81
2022/02/20 12:35:10;;;;;;;58.08;8.73;;;9.00;99.90;;;;;;5040496;28;20037;-81
2022/02/20 12:37:39;;;;;;;53.78;8.13;;;9.10;99.90;;;;;;5039583;28;20041;-81
2022/02/20 12:40:27;;;;;;;47.00;6.47;;;9.10;99.90;;;;;;5020228;28;20124;-78
2022/02/20 12:42:57;;;;;;;53.53;7.75;;;9.20;99.90;;;;;;5034190;28;20052;-79
2022/02/20 12:45:29;;;;;;;55.13;9.10;;;9.00;99.90;;;;;;5023886;28;20056;-80
2022/02/20 12:47:56;;;;;;;58.25;7.50;;;9.10;99.90;;;;;;5033516;28;20033;-80
2022/02/20 12:50:44;;;;;;;52.53;7.85;;;9.20;99.90;;;;;;5034023;28;20048;-80
2022/02/20 12:53:10;;;;;;;56.55;8.45;;;9.10;99.90;;;;;;5017788;28;20037;-80
2022/02/20 12:55:38;;;;;;;58.03;7.50;;;9.10;99.90;;;;;;5032232;28;20368;-80
2022/02/20 12:58:10;;;;;;;43.92;6.43;;;9.10;99.90;;;;;;5025081;28;20065;-80
2022/02/20 13:00:41;;;;;;;60.72;8.32;;;9.20;99.90;;;;;;5032483;28;20047;-78
2022/02/20 13:03:13;;;;;;;43.25;7.10;;;9.10;99.90;;;;;;5049046;28;20041;-79
2022/02/20 13:05:40;;;;;;;60.72;8.95;;;9.10;99.90;;;;;;5035717;28;20056;-79
2022/02/20 13:08:13;;;;;;;57.42;9.05;;;9.20;99.90;;;;;;5049896;28;20068;-83